createdAt,value
2019-03-24T00:00:23.701Z,22.71
2019-03-24T00:01:23.574Z,22.83
2019-03-24T00:02:23.572Z,22.78
2019-03-24T00:03:23.554Z,22.77
2019-03-24T00:04:23.545Z,22.76
2019-03-24T00:05:23.533Z,22.73
2019-03-24T00:06:23.704Z,22.77
2019-03-24T00:07:23.509Z,22.83
2019-03-24T00:08:23.501Z,22.77
2019-03-24T00:09:23.490Z,22.80
2019-03-24T00:10:23.480Z,22.74
2019-03-24T00:11:23.478Z,22.74
2019-03-24T00:12:23.634Z,22.73
2019-03-24T00:13:24.951Z,22.78
2019-03-24T00:14:23.440Z,22.76
2019-03-24T00:15:26.617Z,22.71
2019-03-24T00:16:23.417Z,22.80
2019-03-24T00:17:23.406Z,22.83
2019-03-24T00:18:23.539Z,22.74
2019-03-24T00:19:23.383Z,22.77
2019-03-24T00:20:23.378Z,22.74
2019-03-24T00:21:23.360Z,22.77
2019-03-24T00:22:23.348Z,22.71
2019-03-24T00:23:23.336Z,22.77
2019-03-24T00:24:23.423Z,22.73
2019-03-24T00:25:23.316Z,22.80
2019-03-24T00:26:23.543Z,22.80
2019-03-24T00:27:23.293Z,22.73
2019-03-24T00:28:23.282Z,22.74
2019-03-24T00:29:23.279Z,22.80
2019-03-24T00:30:23.444Z,22.74
2019-03-24T00:31:23.254Z,22.71
2019-03-24T00:32:23.241Z,22.71
2019-03-24T00:33:23.227Z,22.77
2019-03-24T00:34:23.224Z,22.71
2019-03-24T00:35:23.213Z,22.74
2019-03-24T00:36:23.368Z,22.74
2019-03-24T00:37:23.193Z,22.74
2019-03-24T00:38:23.174Z,22.70
2019-03-24T00:39:23.183Z,22.76
2019-03-24T00:40:23.152Z,22.74
2019-03-24T00:41:23.140Z,22.74
2019-03-24T00:42:23.237Z,22.76
2019-03-24T00:43:23.118Z,22.76
2019-03-24T00:44:23.108Z,22.74
2019-03-24T00:45:24.098Z,22.71
2019-03-24T00:46:23.088Z,22.77
2019-03-24T00:47:23.077Z,22.71
2019-03-24T00:48:23.164Z,22.76
2019-03-24T00:49:23.057Z,22.74
2019-03-24T00:50:23.049Z,22.68
2019-03-24T00:51:23.038Z,22.78
2019-03-24T00:52:23.020Z,22.68
2019-03-24T00:53:23.016Z,22.63
2019-03-24T00:54:23.360Z,22.76
2019-03-24T00:55:22.991Z,22.78
2019-03-24T00:56:22.988Z,22.70
2019-03-24T00:57:22.976Z,22.77
2019-03-24T00:58:22.959Z,22.68
2019-03-24T00:59:22.945Z,22.68
2019-03-24T01:00:23.043Z,22.73
2019-03-24T01:01:22.924Z,22.76
2019-03-24T01:02:22.915Z,22.65
2019-03-24T01:03:22.907Z,22.65
2019-03-24T01:04:22.890Z,22.70
2019-03-24T01:05:22.882Z,22.77
2019-03-24T01:06:22.984Z,22.68
2019-03-24T01:07:22.861Z,22.73
2019-03-24T01:08:22.851Z,22.71
2019-03-24T01:09:22.840Z,22.73
2019-03-24T01:10:22.826Z,22.77
2019-03-24T01:11:22.819Z,22.70
2019-03-24T01:12:23.076Z,22.70
2019-03-24T01:13:22.800Z,22.80
2019-03-24T01:14:22.784Z,22.67
2019-03-24T01:15:22.771Z,22.63
2019-03-24T01:16:22.768Z,22.76
2019-03-24T01:17:22.757Z,22.63
2019-03-24T01:18:22.843Z,22.70
2019-03-24T01:19:22.730Z,22.71
2019-03-24T01:20:22.718Z,22.73
2019-03-24T01:21:22.707Z,22.67
2019-03-24T01:22:22.707Z,22.62
2019-03-24T01:23:22.686Z,22.65
2019-03-24T01:24:22.779Z,22.68
2019-03-24T01:25:22.662Z,22.67
2019-03-24T01:26:22.654Z,22.63
2019-03-24T01:27:22.647Z,22.67
2019-03-24T01:28:22.639Z,22.63
2019-03-24T01:29:22.623Z,22.70
2019-03-24T01:30:22.776Z,22.73
2019-03-24T01:31:22.599Z,22.70
2019-03-24T01:32:22.595Z,22.68
2019-03-24T01:33:22.587Z,22.71
2019-03-24T01:34:22.573Z,22.71
2019-03-24T01:35:22.563Z,22.68
2019-03-24T01:36:22.749Z,22.70
2019-03-24T01:37:22.537Z,22.65
2019-03-24T01:38:22.546Z,22.67
2019-03-24T01:39:22.514Z,22.67
2019-03-24T01:40:22.502Z,22.62
2019-03-24T01:41:22.492Z,22.67
2019-03-24T01:42:22.577Z,22.70
2019-03-24T01:43:22.470Z,22.63
2019-03-24T01:44:22.458Z,22.67
2019-03-24T01:45:22.459Z,22.67
2019-03-24T01:46:22.441Z,22.67
2019-03-24T01:47:22.429Z,22.68
2019-03-24T01:48:22.513Z,22.63
2019-03-24T01:49:22.406Z,22.63
2019-03-24T01:50:22.397Z,22.70
2019-03-24T01:51:22.394Z,22.70
2019-03-24T01:52:22.374Z,22.61
2019-03-24T01:53:22.364Z,22.67
2019-03-24T01:54:22.537Z,22.67
2019-03-24T01:55:22.345Z,22.67
2019-03-24T01:56:22.333Z,22.73
2019-03-24T01:57:22.317Z,22.58
2019-03-24T01:58:22.313Z,22.65
2019-03-24T01:59:22.308Z,22.67
2019-03-24T02:00:22.387Z,22.67
2019-03-24T02:01:22.273Z,22.73
2019-03-24T02:02:22.266Z,22.65
2019-03-24T02:03:22.260Z,22.61
2019-03-24T02:04:22.253Z,22.59
2019-03-24T02:05:22.232Z,22.63
2019-03-24T02:06:22.324Z,22.65
2019-03-24T02:07:22.209Z,22.70
2019-03-24T02:08:22.197Z,22.67
2019-03-24T02:09:22.203Z,22.67
2019-03-24T02:10:22.181Z,22.67
2019-03-24T02:11:22.169Z,22.65
2019-03-24T02:12:22.486Z,22.68
2019-03-24T02:13:22.142Z,22.70
2019-03-24T02:14:22.143Z,22.71
2019-03-24T02:15:22.130Z,22.71
2019-03-24T02:16:22.119Z,22.65
2019-03-24T02:17:22.101Z,22.67
2019-03-24T02:18:22.182Z,22.63
2019-03-24T02:19:22.077Z,22.58
2019-03-24T02:20:22.076Z,22.62
2019-03-24T02:21:22.056Z,22.65
2019-03-24T02:22:22.045Z,22.65
2019-03-24T02:23:22.034Z,22.61
2019-03-24T02:24:22.327Z,22.68
2019-03-24T02:25:22.014Z,22.67
2019-03-24T02:26:22.005Z,22.67
2019-03-24T02:27:21.993Z,22.61
2019-03-24T02:28:21.982Z,22.68
2019-03-24T02:29:21.970Z,22.68
2019-03-24T02:30:22.288Z,22.62
2019-03-24T02:31:21.955Z,22.70
2019-03-24T02:32:21.942Z,22.59
2019-03-24T02:33:21.931Z,22.67
2019-03-24T02:34:21.947Z,22.62
2019-03-24T02:35:21.923Z,22.63
2019-03-24T02:36:21.986Z,22.67
2019-03-24T02:37:21.891Z,22.59
2019-03-24T02:38:21.875Z,22.58
2019-03-24T02:39:21.862Z,22.58
2019-03-24T02:40:21.851Z,22.56
2019-03-24T02:41:21.860Z,22.56
2019-03-24T02:42:21.958Z,22.59
2019-03-24T02:43:21.821Z,22.58
2019-03-24T02:44:21.810Z,22.59
2019-03-24T02:45:21.798Z,22.52
2019-03-24T02:46:24.585Z,22.56
2019-03-24T02:47:21.776Z,22.58
2019-03-24T02:48:22.041Z,22.61
2019-03-24T02:49:21.757Z,22.55
2019-03-24T02:50:21.745Z,22.49
2019-03-24T02:51:21.748Z,22.61
2019-03-24T02:52:21.727Z,22.52
2019-03-24T02:53:21.716Z,22.49
2019-03-24T02:54:21.798Z,22.52
2019-03-24T02:55:21.721Z,22.43
2019-03-24T02:56:21.683Z,22.43
2019-03-24T02:57:21.675Z,22.46
2019-03-24T02:58:21.665Z,22.49
2019-03-24T02:59:21.645Z,22.46
2019-03-24T03:00:21.739Z,22.56
2019-03-24T03:01:21.622Z,22.47
2019-03-24T03:02:21.612Z,22.46
2019-03-24T03:03:21.603Z,22.46
2019-03-24T03:04:21.590Z,22.47
2019-03-24T03:05:21.582Z,22.49
2019-03-24T03:06:21.740Z,22.43
2019-03-24T03:07:21.563Z,22.56
2019-03-24T03:08:21.550Z,22.53
2019-03-24T03:09:21.545Z,22.44
2019-03-24T03:10:21.541Z,22.44
2019-03-24T03:11:21.516Z,22.55
2019-03-24T03:12:21.605Z,22.47
2019-03-24T03:13:21.499Z,22.41
2019-03-24T03:14:21.487Z,22.47
2019-03-24T03:15:21.479Z,22.43
2019-03-24T03:16:21.461Z,22.49
2019-03-24T03:17:21.450Z,22.51
2019-03-24T03:18:21.547Z,22.46
2019-03-24T03:19:21.434Z,22.40
2019-03-24T03:20:21.419Z,22.52
2019-03-24T03:21:21.406Z,22.46
2019-03-24T03:22:21.400Z,22.47
2019-03-24T03:23:21.385Z,22.47
2019-03-24T03:24:21.618Z,22.46
2019-03-24T03:25:21.362Z,22.46
2019-03-24T03:26:21.351Z,22.40
2019-03-24T03:27:21.359Z,22.41
2019-03-24T03:28:21.332Z,22.40
2019-03-24T03:29:21.322Z,22.41
2019-03-24T03:30:21.409Z,22.41
2019-03-24T03:31:21.302Z,22.40
2019-03-24T03:32:21.287Z,22.43
2019-03-24T03:33:21.282Z,22.40
2019-03-24T03:34:21.275Z,22.40
2019-03-24T03:35:21.262Z,22.38
2019-03-24T03:36:21.353Z,22.46
2019-03-24T03:37:21.233Z,22.40
2019-03-24T03:38:21.226Z,22.40
2019-03-24T03:39:21.381Z,22.37
2019-03-24T03:40:21.201Z,22.36
2019-03-24T03:41:21.190Z,22.41
2019-03-24T03:42:21.443Z,22.41
2019-03-24T03:43:21.167Z,22.38
2019-03-24T03:44:21.158Z,22.40
2019-03-24T03:45:21.147Z,22.38
2019-03-24T03:46:21.137Z,22.41
2019-03-24T03:47:21.123Z,22.40
2019-03-24T03:48:21.218Z,22.46
2019-03-24T03:49:21.107Z,22.41
2019-03-24T03:50:21.094Z,22.46
2019-03-24T03:51:21.086Z,22.38
2019-03-24T03:52:21.076Z,22.38
2019-03-24T03:53:21.060Z,22.44
2019-03-24T03:54:21.151Z,22.40
2019-03-24T03:55:21.055Z,22.44
2019-03-24T03:56:21.033Z,22.46
2019-03-24T03:57:21.016Z,22.43
2019-03-24T03:58:21.014Z,22.41
2019-03-24T03:59:20.997Z,22.38
2019-03-24T04:00:21.281Z,22.41
2019-03-24T04:01:20.972Z,22.38
2019-03-24T04:02:20.960Z,22.38
2019-03-24T04:03:20.951Z,22.40
2019-03-24T04:04:20.942Z,22.38
2019-03-24T04:05:20.931Z,22.38
2019-03-24T04:06:21.039Z,22.36
2019-03-24T04:07:20.906Z,22.40
2019-03-24T04:08:20.901Z,22.44
2019-03-24T04:09:20.886Z,22.34
2019-03-24T04:10:20.878Z,22.40
2019-03-24T04:11:20.873Z,22.38
2019-03-24T04:12:20.951Z,22.33
2019-03-24T04:13:20.852Z,22.40
2019-03-24T04:14:20.833Z,22.43
2019-03-24T04:15:20.820Z,22.43
2019-03-24T04:16:20.816Z,22.41
2019-03-24T04:17:20.809Z,22.41
2019-03-24T04:18:20.947Z,22.38
2019-03-24T04:19:20.778Z,22.41
2019-03-24T04:20:20.765Z,22.46
2019-03-24T04:21:20.771Z,22.36
2019-03-24T04:22:20.748Z,22.43
2019-03-24T04:23:20.734Z,22.41
2019-03-24T04:24:20.967Z,22.36
2019-03-24T04:25:20.713Z,22.43
2019-03-24T04:26:20.704Z,22.40
2019-03-24T04:27:20.694Z,22.40
2019-03-24T04:28:20.694Z,22.43
2019-03-24T04:29:20.670Z,22.52
2019-03-24T04:30:20.753Z,22.43
2019-03-24T04:31:20.650Z,22.47
2019-03-24T04:32:20.640Z,22.40
2019-03-24T04:33:20.629Z,22.40
2019-03-24T04:34:20.618Z,22.46
2019-03-24T04:35:20.606Z,22.47
2019-03-24T04:36:20.763Z,22.46
2019-03-24T04:37:20.589Z,22.44
2019-03-24T04:38:20.583Z,22.49
2019-03-24T04:39:20.605Z,22.46
2019-03-24T04:40:20.553Z,22.43
2019-03-24T04:41:20.541Z,22.51
2019-03-24T04:42:20.714Z,22.44
2019-03-24T04:43:20.523Z,22.51
2019-03-24T04:44:20.519Z,22.51
2019-03-24T04:45:20.499Z,22.46
2019-03-24T04:46:20.487Z,22.47
2019-03-24T04:47:20.478Z,22.49
2019-03-24T04:48:20.565Z,22.49
2019-03-24T04:49:20.454Z,22.51
2019-03-24T04:50:20.443Z,22.56
2019-03-24T04:51:20.432Z,22.49
2019-03-24T04:52:20.422Z,22.56
2019-03-24T04:53:20.866Z,22.47
2019-03-24T04:54:20.538Z,22.53
2019-03-24T04:55:20.389Z,22.55
2019-03-24T04:56:20.377Z,22.58
2019-03-24T04:57:20.373Z,22.44
2019-03-24T04:58:20.366Z,22.52
2019-03-24T04:59:20.364Z,22.44
2019-03-24T05:00:20.525Z,22.46
2019-03-24T05:01:20.324Z,22.46
2019-03-24T05:02:20.319Z,22.46
2019-03-24T05:03:20.309Z,22.53
2019-03-24T05:04:20.293Z,22.52
2019-03-24T05:05:20.280Z,22.51
2019-03-24T05:06:20.393Z,22.53
2019-03-24T05:07:20.258Z,22.56
2019-03-24T05:08:20.251Z,22.49
2019-03-24T05:09:20.237Z,22.46
2019-03-24T05:10:20.227Z,22.49
2019-03-24T05:11:20.214Z,22.53
2019-03-24T05:12:20.371Z,22.55
2019-03-24T05:13:20.196Z,22.56
2019-03-24T05:14:20.183Z,22.59
2019-03-24T05:15:20.175Z,22.56
2019-03-24T05:16:20.162Z,22.59
2019-03-24T05:17:26.962Z,22.59
2019-03-24T05:18:21.249Z,22.58
2019-03-24T05:19:20.134Z,22.62
2019-03-24T05:20:20.126Z,22.62
2019-03-24T05:21:20.112Z,22.62
2019-03-24T05:22:20.096Z,22.58
2019-03-24T05:23:20.086Z,22.65
2019-03-24T05:24:20.215Z,22.58
2019-03-24T05:25:20.062Z,22.68
2019-03-24T05:26:20.051Z,22.68
2019-03-24T05:27:20.042Z,22.62
2019-03-24T05:28:20.033Z,22.70
2019-03-24T05:29:20.020Z,22.73
2019-03-24T05:30:20.256Z,22.70
2019-03-24T05:31:19.998Z,22.76
2019-03-24T05:32:19.989Z,22.76
2019-03-24T05:33:19.984Z,22.71
2019-03-24T05:34:19.967Z,22.74
2019-03-24T05:35:19.957Z,22.76
2019-03-24T05:36:20.192Z,22.81
2019-03-24T05:37:19.937Z,22.83
2019-03-24T05:38:19.921Z,22.74
2019-03-24T05:39:19.917Z,22.89
2019-03-24T05:40:19.908Z,22.78
2019-03-24T05:41:19.907Z,22.83
2019-03-24T05:42:19.991Z,22.80
2019-03-24T05:43:19.867Z,22.78
2019-03-24T05:44:19.860Z,22.80
2019-03-24T05:45:19.857Z,22.83
2019-03-24T05:46:19.846Z,22.83
2019-03-24T05:47:19.823Z,22.80
2019-03-24T05:48:19.991Z,22.88
2019-03-24T05:49:19.808Z,22.84
2019-03-24T05:50:20.456Z,22.81
2019-03-24T05:51:19.794Z,22.92
2019-03-24T05:52:19.775Z,22.91
2019-03-24T05:53:19.760Z,22.91
2019-03-24T05:54:19.858Z,22.91
2019-03-24T05:55:19.742Z,22.91
2019-03-24T05:56:19.730Z,22.96
2019-03-24T05:57:19.717Z,22.98
2019-03-24T05:58:19.709Z,22.93
2019-03-24T05:59:19.722Z,22.95
2019-03-24T06:00:19.785Z,22.96
2019-03-24T06:01:19.683Z,23.04
2019-03-24T06:02:19.684Z,22.99
2019-03-24T06:03:19.657Z,23.01
2019-03-24T06:04:19.644Z,22.99
2019-03-24T06:05:19.629Z,22.99
2019-03-24T06:06:19.894Z,23.01
2019-03-24T06:07:19.608Z,22.98
2019-03-24T06:08:19.598Z,23.02
2019-03-24T06:09:19.586Z,22.98
2019-03-24T06:10:19.574Z,23.02
2019-03-24T06:11:19.563Z,22.99
2019-03-24T06:12:19.728Z,23.06
2019-03-24T06:13:19.545Z,23.01
2019-03-24T06:14:19.533Z,23.01
2019-03-24T06:15:19.521Z,23.07
2019-03-24T06:16:19.512Z,23.11
2019-03-24T06:17:19.504Z,23.07
2019-03-24T06:18:19.614Z,23.17
2019-03-24T06:19:19.496Z,23.01
2019-03-24T06:20:19.467Z,23.08
2019-03-24T06:21:19.456Z,23.11
2019-03-24T06:22:19.453Z,23.13
2019-03-24T06:23:19.443Z,23.13
2019-03-24T06:24:19.621Z,23.11
2019-03-24T06:25:19.417Z,23.02
2019-03-24T06:26:19.403Z,23.16
2019-03-24T06:27:19.390Z,23.08
2019-03-24T06:28:19.383Z,23.14
2019-03-24T06:29:19.373Z,23.16
2019-03-24T06:30:19.452Z,23.07
2019-03-24T06:31:19.348Z,23.17
2019-03-24T06:32:19.340Z,23.04
2019-03-24T06:33:19.332Z,23.04
2019-03-24T06:34:19.318Z,23.11
2019-03-24T06:35:19.307Z,23.01
2019-03-24T06:36:19.596Z,23.10
2019-03-24T06:37:19.284Z,23.08
2019-03-24T06:38:19.276Z,23.14
2019-03-24T06:39:19.270Z,23.06
2019-03-24T06:40:19.885Z,22.99
2019-03-24T06:41:19.240Z,23.08
2019-03-24T06:42:19.337Z,23.10
2019-03-24T06:43:19.226Z,23.11
2019-03-24T06:44:19.204Z,23.07
2019-03-24T06:45:27.913Z,23.07
2019-03-24T06:46:20.182Z,23.08
2019-03-24T06:47:19.175Z,22.99
2019-03-24T06:48:19.417Z,23.13
2019-03-24T06:49:19.167Z,23.14
2019-03-24T06:50:19.145Z,23.08
2019-03-24T06:51:19.137Z,23.21
2019-03-24T06:52:19.119Z,23.17
2019-03-24T06:53:19.112Z,23.16
2019-03-24T06:54:19.286Z,23.14
2019-03-24T06:55:19.093Z,23.17
2019-03-24T06:56:19.081Z,23.07
2019-03-24T06:57:19.067Z,23.07
2019-03-24T06:58:19.059Z,23.20
2019-03-24T06:59:19.054Z,23.10
2019-03-24T07:00:19.127Z,23.17
2019-03-24T07:01:19.033Z,23.13
2019-03-24T07:02:19.014Z,23.13
2019-03-24T07:03:19.000Z,23.16
2019-03-24T07:04:18.995Z,23.14
2019-03-24T07:05:18.977Z,23.18
2019-03-24T07:06:19.069Z,23.20
2019-03-24T07:07:18.959Z,23.13
2019-03-24T07:08:18.947Z,23.08
2019-03-24T07:09:18.934Z,23.17
2019-03-24T07:10:18.935Z,23.16
2019-03-24T07:11:18.942Z,23.20
2019-03-24T07:12:19.092Z,23.10
2019-03-24T07:13:18.894Z,23.13
2019-03-24T07:14:18.899Z,23.13
2019-03-24T07:15:18.873Z,23.17
2019-03-24T07:16:18.868Z,23.08
2019-03-24T07:17:18.852Z,23.13
2019-03-24T07:18:18.946Z,23.11
2019-03-24T07:19:18.842Z,23.08
2019-03-24T07:20:18.823Z,23.08
2019-03-24T07:21:18.811Z,23.01
2019-03-24T07:22:18.801Z,23.01
2019-03-24T07:23:18.784Z,23.01
2019-03-24T07:24:18.867Z,23.01
2019-03-24T07:25:18.762Z,23.04
2019-03-24T07:26:18.753Z,23.04
2019-03-24T07:27:19.426Z,23.08
2019-03-24T07:28:18.733Z,23.02
2019-03-24T07:29:18.719Z,23.06
2019-03-24T07:30:18.891Z,23.02
2019-03-24T07:31:18.697Z,22.99
2019-03-24T07:32:18.691Z,23.04
2019-03-24T07:33:18.676Z,22.99
2019-03-24T07:34:18.668Z,22.99
2019-03-24T07:35:18.656Z,22.99
2019-03-24T07:36:18.879Z,23.02
2019-03-24T07:37:18.635Z,23.11
2019-03-24T07:38:18.627Z,23.13
2019-03-24T07:39:18.613Z,23.06
2019-03-24T07:40:18.603Z,23.08
2019-03-24T07:41:18.597Z,23.08
2019-03-24T07:42:18.704Z,23.06
2019-03-24T07:43:19.428Z,23.14
2019-03-24T07:44:18.554Z,23.01
2019-03-24T07:45:18.542Z,23.04
2019-03-24T07:46:18.538Z,23.08
2019-03-24T07:47:18.533Z,23.16
2019-03-24T07:48:19.488Z,23.08
2019-03-24T07:49:18.502Z,23.08
2019-03-24T07:50:18.499Z,23.11
2019-03-24T07:51:18.479Z,23.14
2019-03-24T07:52:18.470Z,23.13
2019-03-24T07:53:18.460Z,23.04
2019-03-24T07:54:18.646Z,23.01
2019-03-24T07:55:18.436Z,23.04
2019-03-24T07:56:18.432Z,23.07
2019-03-24T07:57:18.417Z,23.13
2019-03-24T07:58:18.410Z,23.11
2019-03-24T07:59:18.396Z,23.16
2019-03-24T08:00:19.357Z,23.08
2019-03-24T08:01:18.374Z,23.16
2019-03-24T08:02:18.364Z,23.11
2019-03-24T08:03:18.351Z,23.13
2019-03-24T08:04:18.341Z,23.10
2019-03-24T08:05:18.330Z,23.20
2019-03-24T08:06:18.424Z,23.17
2019-03-24T08:07:18.310Z,23.20
2019-03-24T08:08:18.296Z,23.17
2019-03-24T08:09:18.284Z,23.20
2019-03-24T08:10:18.274Z,23.10
2019-03-24T08:11:18.264Z,23.14
2019-03-24T08:12:18.456Z,23.17
2019-03-24T08:13:18.242Z,23.11
2019-03-24T08:14:18.234Z,23.13
2019-03-24T08:15:18.219Z,23.18
2019-03-24T08:16:18.212Z,23.16
2019-03-24T08:17:18.201Z,23.14
2019-03-24T08:18:18.285Z,23.11
2019-03-24T08:19:18.189Z,23.21
2019-03-24T08:20:18.174Z,23.16
2019-03-24T08:21:18.154Z,23.25
2019-03-24T08:22:18.145Z,23.23
2019-03-24T08:23:18.140Z,23.23
2019-03-24T08:24:18.431Z,23.32
2019-03-24T08:25:19.129Z,23.34
2019-03-24T08:26:18.104Z,23.28
2019-03-24T08:27:18.117Z,23.32
2019-03-24T08:28:18.082Z,23.26
2019-03-24T08:29:18.078Z,23.40
2019-03-24T08:30:18.932Z,23.34
2019-03-24T08:31:18.047Z,23.37
2019-03-24T08:32:18.038Z,23.45
2019-03-24T08:33:18.035Z,23.42
2019-03-24T08:34:18.017Z,23.47
2019-03-24T08:35:18.004Z,23.48
2019-03-24T08:36:18.090Z,23.40
2019-03-24T08:37:17.982Z,23.47
2019-03-24T08:38:17.970Z,23.45
2019-03-24T08:39:17.959Z,23.47
2019-03-24T08:40:17.954Z,23.49
2019-03-24T08:41:17.940Z,23.55
2019-03-24T08:42:18.204Z,23.48
2019-03-24T08:43:17.915Z,23.52
2019-03-24T08:44:17.906Z,23.58
2019-03-24T08:45:17.893Z,23.56
2019-03-24T08:46:17.885Z,23.62
2019-03-24T08:47:17.872Z,23.63
2019-03-24T08:48:17.966Z,23.62
2019-03-24T08:49:17.855Z,23.62
2019-03-24T08:50:17.840Z,23.62
2019-03-24T08:51:17.828Z,23.69
2019-03-24T08:52:17.825Z,23.71
2019-03-24T08:53:17.809Z,23.70
2019-03-24T08:54:17.893Z,23.73
2019-03-24T08:55:17.793Z,23.76
2019-03-24T08:56:17.779Z,23.77
2019-03-24T08:57:17.805Z,23.77
2019-03-24T08:58:17.755Z,23.79
2019-03-24T08:59:17.746Z,23.81
2019-03-24T09:00:17.936Z,23.84
2019-03-24T09:01:17.729Z,23.77
2019-03-24T09:02:17.714Z,23.77
2019-03-24T09:03:17.699Z,23.86
2019-03-24T09:04:17.692Z,23.77
2019-03-24T09:05:17.684Z,23.76
2019-03-24T09:06:17.866Z,23.76
2019-03-24T09:07:17.659Z,23.88
2019-03-24T09:08:17.647Z,23.77
2019-03-24T09:09:17.709Z,23.84
2019-03-24T09:10:17.628Z,23.77
2019-03-24T09:11:17.616Z,23.85
2019-03-24T09:12:17.855Z,23.76
2019-03-24T09:13:17.592Z,23.79
2019-03-24T09:14:17.580Z,23.81
2019-03-24T09:15:17.569Z,23.82
2019-03-24T09:16:17.571Z,23.76
2019-03-24T09:17:17.545Z,23.79
2019-03-24T09:18:17.635Z,23.81
2019-03-24T09:19:17.527Z,23.84
2019-03-24T09:20:17.517Z,23.92
2019-03-24T09:21:19.526Z,23.89
2019-03-24T09:22:17.498Z,23.86
2019-03-24T09:23:17.487Z,23.89
2019-03-24T09:24:17.646Z,23.89
2019-03-24T09:25:17.506Z,23.96
2019-03-24T09:26:17.453Z,23.92
2019-03-24T09:27:17.443Z,23.92
2019-03-24T09:28:17.434Z,23.89
2019-03-24T09:29:17.422Z,23.94
2019-03-24T09:30:17.597Z,24.03
2019-03-24T09:31:17.405Z,23.99
2019-03-24T09:32:17.387Z,23.96
2019-03-24T09:33:17.378Z,23.99
2019-03-24T09:34:17.380Z,23.86
2019-03-24T09:35:17.357Z,23.95
2019-03-24T09:36:17.442Z,23.88
2019-03-24T09:37:17.333Z,23.94
2019-03-24T09:38:17.321Z,23.96
2019-03-24T09:39:17.314Z,23.96
2019-03-24T09:40:18.701Z,23.92
2019-03-24T09:41:17.305Z,23.89
2019-03-24T09:42:17.550Z,23.94
2019-03-24T09:43:17.269Z,23.96
2019-03-24T09:44:17.266Z,23.92
2019-03-24T09:45:17.245Z,23.94
2019-03-24T09:46:17.235Z,23.96
2019-03-24T09:47:17.233Z,23.88
2019-03-24T09:48:17.440Z,23.95
2019-03-24T09:49:17.210Z,23.99
2019-03-24T09:50:17.191Z,23.89
2019-03-24T09:51:17.179Z,23.96
2019-03-24T09:52:17.170Z,23.96
2019-03-24T09:53:17.159Z,23.96
2019-03-24T09:54:17.273Z,23.95
2019-03-24T09:55:17.136Z,23.95
2019-03-24T09:56:17.125Z,23.81
2019-03-24T09:57:17.115Z,23.91
2019-03-24T09:58:17.105Z,23.88
2019-03-24T09:59:17.095Z,23.86
2019-03-24T10:00:17.177Z,23.76
2019-03-24T10:01:17.072Z,23.79
2019-03-24T10:02:17.061Z,23.76
2019-03-24T10:03:17.057Z,23.77
2019-03-24T10:04:17.045Z,23.88
2019-03-24T10:05:17.037Z,23.82
2019-03-24T10:06:17.178Z,23.85
2019-03-24T10:07:17.005Z,23.89
2019-03-24T10:08:16.996Z,23.84
2019-03-24T10:09:16.985Z,23.84
2019-03-24T10:10:16.976Z,23.85
2019-03-24T10:11:16.962Z,23.94
2019-03-24T10:12:17.268Z,23.89
2019-03-24T10:13:16.946Z,23.88
2019-03-24T10:14:16.929Z,23.89
2019-03-24T10:15:16.932Z,23.92
2019-03-24T10:16:16.925Z,23.81
2019-03-24T10:17:16.896Z,23.91
2019-03-24T10:18:16.993Z,23.89
2019-03-24T10:19:16.877Z,23.95
2019-03-24T10:20:16.867Z,23.95
2019-03-24T10:21:16.855Z,23.96
2019-03-24T10:22:16.847Z,23.96
2019-03-24T10:23:16.836Z,23.95
2019-03-24T10:24:16.914Z,24.00
2019-03-24T10:25:16.811Z,23.96
2019-03-24T10:26:16.800Z,23.94
2019-03-24T10:27:16.792Z,23.94
2019-03-24T10:28:16.779Z,24.03
2019-03-24T10:29:16.770Z,24.00
2019-03-24T10:30:17.037Z,23.96
2019-03-24T10:31:16.758Z,24.03
2019-03-24T10:32:16.737Z,23.95
2019-03-24T10:33:16.734Z,23.92
2019-03-24T10:34:16.714Z,23.95
2019-03-24T10:35:16.703Z,24.00
2019-03-24T10:36:16.787Z,24.00
2019-03-24T10:37:16.681Z,24.01
2019-03-24T10:38:16.669Z,24.01
2019-03-24T10:39:16.660Z,24.01
2019-03-24T10:40:16.650Z,24.09
2019-03-24T10:41:16.638Z,24.03
2019-03-24T10:42:16.722Z,24.07
2019-03-24T10:43:16.615Z,24.04
2019-03-24T10:44:16.605Z,24.13
2019-03-24T10:45:16.601Z,24.07
2019-03-24T10:46:16.591Z,24.09
2019-03-24T10:47:16.572Z,24.11
2019-03-24T10:48:16.726Z,24.07
2019-03-24T10:49:24.513Z,24.07
2019-03-24T10:50:17.546Z,24.10
2019-03-24T10:51:16.528Z,24.11
2019-03-24T10:52:16.519Z,24.09
2019-03-24T10:53:16.508Z,24.14
2019-03-24T10:54:16.628Z,24.11
2019-03-24T10:55:16.485Z,24.13
2019-03-24T10:56:16.480Z,24.14
2019-03-24T10:57:16.469Z,24.14
2019-03-24T10:58:16.458Z,24.18
2019-03-24T10:59:16.442Z,24.24
2019-03-24T11:00:16.602Z,24.22
2019-03-24T11:01:16.428Z,24.28
2019-03-24T11:02:16.409Z,24.28
2019-03-24T11:03:16.401Z,24.25
2019-03-24T11:04:16.391Z,24.32
2019-03-24T11:05:16.378Z,24.38
2019-03-24T11:06:16.573Z,24.43
2019-03-24T11:07:16.364Z,24.37
2019-03-24T11:08:16.345Z,24.41
2019-03-24T11:09:16.333Z,24.44
2019-03-24T11:10:16.322Z,24.48
2019-03-24T11:11:16.312Z,24.47
2019-03-24T11:12:16.412Z,24.48
2019-03-24T11:13:16.290Z,24.55
2019-03-24T11:14:16.281Z,24.50
2019-03-24T11:15:16.268Z,24.56
2019-03-24T11:16:16.262Z,24.53
2019-03-24T11:17:16.248Z,24.58
2019-03-24T11:18:16.427Z,24.61
2019-03-24T11:19:16.226Z,24.51
2019-03-24T11:20:16.216Z,24.56
2019-03-24T11:21:16.204Z,24.53
2019-03-24T11:22:16.196Z,24.58
2019-03-24T11:23:16.185Z,24.53
2019-03-24T11:24:16.269Z,24.53
2019-03-24T11:25:16.164Z,24.58
2019-03-24T11:26:16.151Z,24.47
2019-03-24T11:27:16.139Z,24.43
2019-03-24T11:28:16.131Z,24.50
2019-03-24T11:29:16.118Z,24.53
2019-03-24T11:30:16.274Z,24.44
2019-03-24T11:31:16.095Z,24.43
2019-03-24T11:32:16.083Z,24.43
2019-03-24T11:33:16.076Z,24.50
2019-03-24T11:34:16.065Z,24.43
2019-03-24T11:35:16.058Z,24.46
2019-03-24T11:36:16.297Z,24.44
2019-03-24T11:37:16.030Z,24.44
2019-03-24T11:38:16.020Z,24.38
2019-03-24T11:39:16.009Z,24.43
2019-03-24T11:40:15.998Z,24.44
2019-03-24T11:41:15.987Z,24.48
2019-03-24T11:42:16.068Z,24.53
2019-03-24T11:43:15.969Z,24.58
2019-03-24T11:44:15.958Z,24.58
2019-03-24T11:45:15.946Z,24.62
2019-03-24T11:46:15.935Z,24.56
2019-03-24T11:47:26.035Z,24.59
2019-03-24T11:48:17.213Z,24.63
2019-03-24T11:49:15.902Z,24.53
2019-03-24T11:50:15.889Z,24.62
2019-03-24T11:51:15.879Z,24.62
2019-03-24T11:52:15.872Z,24.61
2019-03-24T11:53:15.864Z,24.62
2019-03-24T11:54:15.943Z,24.62
2019-03-24T11:55:15.838Z,24.61
2019-03-24T11:56:15.824Z,24.65
2019-03-24T11:57:15.815Z,24.68
2019-03-24T11:58:15.808Z,24.69
2019-03-24T11:59:15.792Z,24.74
2019-03-24T12:00:15.886Z,24.62
2019-03-24T12:01:15.771Z,24.62
2019-03-24T12:02:15.759Z,24.62
2019-03-24T12:03:15.753Z,24.68
2019-03-24T12:04:15.737Z,24.63
2019-03-24T12:05:15.735Z,24.65
2019-03-24T12:06:16.027Z,24.59
2019-03-24T12:07:15.705Z,24.56
2019-03-24T12:08:15.706Z,24.61
2019-03-24T12:09:15.692Z,24.65
2019-03-24T12:10:16.440Z,24.58
2019-03-24T12:11:15.665Z,24.65
2019-03-24T12:12:15.758Z,24.69
2019-03-24T12:13:15.640Z,24.68
2019-03-24T12:14:15.632Z,24.75
2019-03-24T12:15:15.632Z,24.74
2019-03-24T12:16:15.610Z,24.71
2019-03-24T12:17:16.759Z,24.69
2019-03-24T12:18:15.591Z,24.74
2019-03-24T12:19:15.580Z,24.68
2019-03-24T12:20:15.565Z,24.71
2019-03-24T12:21:15.556Z,24.71
2019-03-24T12:22:15.547Z,24.71
2019-03-24T12:23:15.632Z,24.71
2019-03-24T12:24:15.524Z,24.68
2019-03-24T12:25:15.514Z,24.81
2019-03-24T12:26:15.502Z,24.78
2019-03-24T12:27:15.493Z,24.82
2019-03-24T12:28:15.477Z,24.79
2019-03-24T12:29:15.571Z,24.85
2019-03-24T12:30:15.458Z,24.92
2019-03-24T12:31:15.464Z,24.89
2019-03-24T12:32:15.657Z,24.88
2019-03-24T12:33:15.427Z,24.92
2019-03-24T12:34:15.418Z,24.85
2019-03-24T12:35:15.591Z,24.97
2019-03-24T12:36:15.393Z,24.89
2019-03-24T12:37:15.381Z,24.94
2019-03-24T12:38:15.370Z,24.94
2019-03-24T12:39:15.361Z,24.88
2019-03-24T12:40:15.384Z,24.97
2019-03-24T12:41:15.501Z,24.96
2019-03-24T12:42:15.328Z,24.97
2019-03-24T12:43:19.766Z,24.99
2019-03-24T12:44:15.305Z,24.96
2019-03-24T12:45:15.310Z,24.97
2019-03-24T12:46:15.289Z,24.97
2019-03-24T12:47:16.392Z,25.01
2019-03-24T12:48:15.351Z,25.00
2019-03-24T12:49:15.253Z,25.01
2019-03-24T12:50:15.241Z,24.99
2019-03-24T12:51:15.293Z,25.01
2019-03-24T12:52:15.221Z,25.00